createdAt,value
2016-08-16T00:00:37.456Z,11.68
2016-08-16T00:01:38.110Z,11.54
2016-08-16T00:02:38.789Z,11.4
2016-08-16T00:03:39.321Z,11.45
2016-08-16T00:04:39.547Z,11.44
2016-08-16T00:05:38.072Z,11.43
2016-08-16T00:06:38.586Z,11.63
2016-08-16T00:07:39.068Z,11.41
2016-08-16T00:08:37.438Z,11.41
2016-08-16T00:09:38.287Z,11.54
2016-08-16T00:10:37.869Z,11.48
2016-08-16T00:11:38.832Z,11.48
2016-08-16T00:12:38.222Z,11.5
2016-08-16T00:13:39.920Z,11.44
2016-08-16T00:14:38.718Z,11.48
2016-08-16T00:15:37.895Z,11.57
2016-08-16T00:16:38.584Z,11.4
2016-08-16T00:17:38.615Z,11.52
2016-08-16T00:18:38.307Z,11.47
2016-08-16T00:19:39.755Z,11.47
2016-08-16T00:20:39.660Z,11.41
2016-08-16T00:21:38.569Z,11.33
2016-08-16T00:22:38.884Z,11.45
2016-08-16T00:23:38.445Z,11.48
2016-08-16T00:24:38.331Z,11.44
2016-08-16T00:25:38.458Z,11.29
2016-08-16T00:26:39.100Z,11.41
2016-08-16T00:27:38.021Z,11.44
2016-08-16T00:28:38.354Z,11.48
2016-08-16T00:29:38.702Z,11.41
2016-08-16T00:30:38.639Z,11.3
2016-08-16T00:31:39.793Z,11.4
2016-08-16T00:32:38.612Z,11.36
2016-08-16T00:33:39.223Z,11.35
2016-08-16T00:34:38.703Z,11.22
2016-08-16T00:35:38.238Z,11.25
2016-08-16T00:36:39.430Z,11.18
2016-08-16T00:37:39.876Z,11.36
2016-08-16T00:38:38.656Z,11.32
2016-08-16T00:39:38.934Z,11.4
2016-08-16T00:40:39.001Z,11.44
2016-08-16T00:41:39.642Z,11.32
2016-08-16T00:42:39.943Z,11.26
2016-08-16T00:43:38.820Z,11.27
2016-08-16T00:44:40.862Z,11.18
2016-08-16T00:45:39.157Z,11.05
2016-08-16T00:46:38.866Z,11.12
2016-08-16T00:47:39.568Z,11.12
2016-08-16T00:48:38.483Z,11
2016-08-16T00:49:39.555Z,11.11
2016-08-16T00:50:39.308Z,11.02
2016-08-16T00:51:40.517Z,10.89
2016-08-16T00:52:40.681Z,10.92
2016-08-16T00:53:39.033Z,10.99
2016-08-16T00:54:40.002Z,10.96
2016-08-16T00:55:40.070Z,11.05
2016-08-16T00:56:38.664Z,11.08
2016-08-16T00:57:39.783Z,10.84
2016-08-16T00:58:39.374Z,10.75
2016-08-16T00:59:39.356Z,11.05
2016-08-16T01:00:40.577Z,11.1
2016-08-16T01:01:39.601Z,11
2016-08-16T01:02:39.860Z,11.05
2016-08-16T01:03:39.024Z,10.97
2016-08-16T01:04:41.073Z,11.05
2016-08-16T01:05:39.198Z,11.08
2016-08-16T01:06:40.785Z,11.1
2016-08-16T01:07:40.719Z,10.78
2016-08-16T01:08:40.300Z,10.6
2016-08-16T01:09:40.540Z,10.41
2016-08-16T01:10:40.041Z,10.53
2016-08-16T01:11:40.232Z,10.78
2016-08-16T01:12:40.527Z,10.74
2016-08-16T01:13:39.913Z,10.75
2016-08-16T01:14:39.969Z,10.82
2016-08-16T01:15:40.442Z,10.97
2016-08-16T01:16:39.699Z,10.84
2016-08-16T01:17:40.033Z,10.96
2016-08-16T01:18:39.958Z,10.92
2016-08-16T01:19:40.970Z,10.97
2016-08-16T01:20:39.849Z,10.84
2016-08-16T01:21:39.042Z,10.84
2016-08-16T01:22:40.690Z,10.74
2016-08-16T01:23:39.514Z,10.89
2016-08-16T01:24:39.992Z,10.82
2016-08-16T01:25:40.802Z,10.86
2016-08-16T01:26:40.205Z,10.84
2016-08-16T01:27:39.001Z,10.64
2016-08-16T01:28:41.277Z,10.72
2016-08-16T01:29:41.096Z,10.82
2016-08-16T01:30:40.904Z,10.82
2016-08-16T01:31:39.811Z,10.69
2016-08-16T01:32:40.080Z,10.75
2016-08-16T01:33:39.371Z,10.71
2016-08-16T01:34:40.820Z,10.72
2016-08-16T01:35:39.802Z,10.79
2016-08-16T01:36:39.653Z,10.71
2016-08-16T01:37:39.789Z,10.68
2016-08-16T01:38:40.194Z,10.61
2016-08-16T01:39:40.976Z,10.59
2016-08-16T01:40:40.579Z,10.64
2016-08-16T01:41:42.011Z,10.74
2016-08-16T01:42:40.721Z,10.69
2016-08-16T01:43:41.010Z,10.64
2016-08-16T01:44:40.588Z,10.74
2016-08-16T01:45:39.907Z,10.82
2016-08-16T01:46:40.965Z,10.84
2016-08-16T01:47:40.953Z,10.92
2016-08-16T01:48:40.748Z,10.81
2016-08-16T01:49:40.906Z,10.74
2016-08-16T01:50:41.188Z,10.72
2016-08-16T01:51:41.134Z,10.75
2016-08-16T01:52:41.612Z,10.64
2016-08-16T01:53:40.574Z,10.67
2016-08-16T01:54:41.043Z,10.6
2016-08-16T01:55:41.314Z,10.53
2016-08-16T01:56:39.985Z,10.41
2016-08-16T01:57:42.009Z,10.64
2016-08-16T01:58:41.818Z,10.69
2016-08-16T01:59:39.961Z,10.59
2016-08-16T02:00:40.953Z,10.63
2016-08-16T02:01:41.267Z,10.54
2016-08-16T02:02:41.306Z,10.56
2016-08-16T02:03:43.298Z,10.54
2016-08-16T02:04:41.107Z,10.64
2016-08-16T02:05:41.713Z,10.74
2016-08-16T02:06:41.109Z,10.56
2016-08-16T02:07:41.232Z,10.46
2016-08-16T02:08:40.594Z,10.51
2016-08-16T02:09:42.348Z,10.51
2016-08-16T02:10:43.017Z,10.54
2016-08-16T02:11:40.825Z,10.48
2016-08-16T02:12:41.420Z,10.54
2016-08-16T02:13:41.634Z,10.48
2016-08-16T02:14:41.396Z,10.48
2016-08-16T02:15:41.403Z,10.49
2016-08-16T02:16:41.583Z,10.49
2016-08-16T02:17:40.815Z,10.4
2016-08-16T02:18:41.550Z,10.44
2016-08-16T02:19:41.710Z,10.49
2016-08-16T02:20:42.193Z,10.49
2016-08-16T02:21:42.478Z,10.41
2016-08-16T02:22:40.847Z,10.54
2016-08-16T02:23:41.727Z,10.49
2016-08-16T02:24:40.839Z,10.51
2016-08-16T02:25:40.854Z,10.44
2016-08-16T02:26:41.244Z,10.41
2016-08-16T02:27:41.657Z,10.37
2016-08-16T02:28:41.671Z,10.31
2016-08-16T02:29:41.295Z,10.42
2016-08-16T02:30:42.117Z,10.3
2016-08-16T02:31:42.677Z,10.25
2016-08-16T02:32:41.890Z,10.35
2016-08-16T02:33:41.577Z,10.35
2016-08-16T02:34:42.687Z,10.41
2016-08-16T02:35:41.693Z,10.28
2016-08-16T02:36:41.245Z,10.23
2016-08-16T02:37:40.749Z,10.26
2016-08-16T02:38:42.533Z,10.35
2016-08-16T02:39:40.717Z,10.28
2016-08-16T02:40:43.336Z,10.35
2016-08-16T02:41:42.162Z,10.37
2016-08-16T02:42:41.396Z,10.33
2016-08-16T02:43:41.337Z,10.25
2016-08-16T02:44:41.006Z,10.3
2016-08-16T02:45:40.952Z,10.34
2016-08-16T02:46:41.289Z,10.34
2016-08-16T02:47:41.976Z,10.38
2016-08-16T02:48:41.795Z,10.34
2016-08-16T02:49:41.374Z,10.3
2016-08-16T02:50:41.526Z,10.4
2016-08-16T02:51:42.493Z,10.26
2016-08-16T02:52:42.632Z,10.38
2016-08-16T02:53:42.906Z,10.33
2016-08-16T02:54:41.875Z,10.38
2016-08-16T02:55:41.090Z,10.33
2016-08-16T02:56:41.942Z,10.33
2016-08-16T02:57:42.844Z,10.17
2016-08-16T02:58:42.457Z,10.23
2016-08-16T02:59:43.411Z,10.35
2016-08-16T03:00:42.762Z,10.33
2016-08-16T03:01:41.445Z,10.31
2016-08-16T03:02:41.687Z,10.31
2016-08-16T03:03:41.244Z,10.3
2016-08-16T03:04:43.211Z,10.35
2016-08-16T03:05:41.980Z,10.4
2016-08-16T03:06:41.911Z,10.37
2016-08-16T03:07:41.772Z,10.31
2016-08-16T03:08:42.209Z,10.34
2016-08-16T03:09:44.151Z,10.59
2016-08-16T03:10:43.288Z,10.57
2016-08-16T03:11:42.661Z,10.59
2016-08-16T03:12:42.081Z,10.68
2016-08-16T03:13:42.480Z,10.72
2016-08-16T03:14:43.122Z,10.79
2016-08-16T03:15:42.647Z,10.54
2016-08-16T03:16:42.492Z,10.49
2016-08-16T03:17:43.165Z,10.68
2016-08-16T03:18:42.108Z,10.67
2016-08-16T03:19:42.714Z,10.72
2016-08-16T03:20:41.608Z,10.78
2016-08-16T03:21:41.560Z,10.71
2016-08-16T03:22:42.276Z,10.67
2016-08-16T03:23:42.090Z,10.69
2016-08-16T03:24:42.683Z,10.69
2016-08-16T03:25:42.447Z,10.9
2016-08-16T03:26:42.574Z,10.93
2016-08-16T03:27:42.106Z,10.99
2016-08-16T03:28:43.311Z,11.1
2016-08-16T03:29:43.053Z,10.96
2016-08-16T03:30:43.206Z,10.84
2016-08-16T03:31:42.951Z,10.86
2016-08-16T03:32:43.025Z,10.72
2016-08-16T03:33:43.035Z,10.68
2016-08-16T03:34:42.226Z,10.69
2016-08-16T03:35:43.649Z,10.61
2016-08-16T03:36:42.632Z,10.69
2016-08-16T03:37:42.010Z,10.92
2016-08-16T03:38:42.194Z,10.93
2016-08-16T03:39:42.136Z,10.76
2016-08-16T03:40:43.768Z,10.86
2016-08-16T03:41:43.058Z,10.71
2016-08-16T03:42:43.809Z,10.68
2016-08-16T03:43:42.743Z,10.86
2016-08-16T03:44:42.271Z,10.89
2016-08-16T03:45:44.136Z,10.86
2016-08-16T03:46:43.321Z,10.82
2016-08-16T03:47:43.876Z,10.86
2016-08-16T03:48:43.884Z,10.84
2016-08-16T03:49:43.495Z,10.78
2016-08-16T03:50:43.425Z,11.02
2016-08-16T03:51:43.460Z,10.99
2016-08-16T03:52:45.156Z,10.82
2016-08-16T03:53:43.394Z,10.87
2016-08-16T03:54:43.334Z,10.82
2016-08-16T03:55:44.739Z,10.82
2016-08-16T03:56:43.479Z,10.99
2016-08-16T03:57:43.891Z,10.94
2016-08-16T03:58:44.092Z,10.87
2016-08-16T03:59:44.231Z,10.75
2016-08-16T04:00:43.153Z,10.74
2016-08-16T04:01:42.218Z,10.76
2016-08-16T04:02:45.146Z,10.74
2016-08-16T04:03:43.379Z,10.84
2016-08-16T04:04:43.451Z,10.79
2016-08-16T04:05:44.438Z,10.79
2016-08-16T04:06:43.626Z,10.74
2016-08-16T04:07:43.029Z,10.79
2016-08-16T04:08:43.830Z,10.82
2016-08-16T04:09:45.442Z,10.87
2016-08-16T04:10:44.884Z,10.76
2016-08-16T04:11:43.546Z,10.75
2016-08-16T04:12:44.454Z,10.71
2016-08-16T04:13:43.155Z,10.71
2016-08-16T04:14:43.224Z,10.53
2016-08-16T04:15:43.655Z,10.56
2016-08-16T04:16:43.301Z,10.57
2016-08-16T04:17:44.161Z,10.54
2016-08-16T04:18:44.442Z,10.63
2016-08-16T04:19:44.074Z,10.61
2016-08-16T04:20:43.805Z,10.67
2016-08-16T04:21:44.861Z,10.68
2016-08-16T04:22:43.204Z,10.54
2016-08-16T04:23:44.503Z,10.64
2016-08-16T04:24:43.615Z,10.64
2016-08-16T04:25:43.597Z,10.68
2016-08-16T04:26:44.111Z,10.48
2016-08-16T04:27:44.304Z,10.41
2016-08-16T04:28:44.188Z,10.44
2016-08-16T04:29:44.047Z,10.61
2016-08-16T04:30:43.546Z,10.51
2016-08-16T04:31:45.547Z,10.48
2016-08-16T04:32:44.084Z,10.54
2016-08-16T04:33:43.391Z,10.53
2016-08-16T04:34:44.101Z,10.48
2016-08-16T04:35:43.318Z,10.6
2016-08-16T04:36:44.862Z,10.53
2016-08-16T04:37:44.572Z,10.48
2016-08-16T04:38:43.090Z,10.54
2016-08-16T04:39:45.145Z,10.44
2016-08-16T04:40:44.826Z,10.53
2016-08-16T04:41:43.853Z,10.63
2016-08-16T04:42:44.425Z,10.67
2016-08-16T04:43:45.573Z,10.63
2016-08-16T04:44:44.004Z,10.48
2016-08-16T04:45:43.972Z,10.56
2016-08-16T04:46:44.024Z,10.6
2016-08-16T04:47:44.329Z,10.6
2016-08-16T04:48:45.549Z,10.68
2016-08-16T04:49:45.849Z,10.53
2016-08-16T04:50:45.106Z,10.69
2016-08-16T04:51:43.688Z,10.49
2016-08-16T04:52:44.141Z,10.34
2016-08-16T04:53:44.201Z,10.54
2016-08-16T04:54:44.344Z,10.54
2016-08-16T04:55:45.094Z,10.6
2016-08-16T04:56:43.713Z,10.63
2016-08-16T04:57:43.316Z,10.67
2016-08-16T04:58:44.445Z,10.76
2016-08-16T04:59:43.563Z,10.64
2016-08-16T05:00:44.174Z,10.61
2016-08-16T05:01:44.785Z,10.57
2016-08-16T05:02:45.296Z,10.56
2016-08-16T05:03:43.883Z,10.67
2016-08-16T05:04:44.646Z,10.72
2016-08-16T05:05:44.389Z,10.78
2016-08-16T05:06:44.882Z,10.74
2016-08-16T05:07:44.029Z,10.74
2016-08-16T05:08:45.075Z,10.81
2016-08-16T05:09:45.057Z,10.84
2016-08-16T05:10:44.272Z,10.87
2016-08-16T05:11:44.951Z,10.81
2016-08-16T05:12:44.481Z,10.74
2016-08-16T05:13:44.019Z,10.67
2016-08-16T05:14:45.443Z,10.63
2016-08-16T05:15:44.034Z,10.54
2016-08-16T05:16:44.751Z,10.48
2016-08-16T05:17:45.711Z,10.57
2016-08-16T05:18:45.203Z,10.71
2016-08-16T05:19:46.519Z,10.82
2016-08-16T05:20:45.435Z,10.82
2016-08-16T05:21:45.807Z,10.93
2016-08-16T05:22:44.651Z,10.94
2016-08-16T05:23:44.335Z,10.89
2016-08-16T05:24:45.091Z,10.84
2016-08-16T05:25:44.578Z,10.89
2016-08-16T05:26:45.574Z,11.07
2016-08-16T05:27:44.590Z,11.1
2016-08-16T05:28:44.514Z,11.17
2016-08-16T05:29:46.383Z,11.14
2016-08-16T05:30:45.573Z,11.19
2016-08-16T05:31:44.830Z,11.22
2016-08-16T05:32:44.851Z,11.17
2016-08-16T05:33:46.101Z,11.22
2016-08-16T05:34:44.437Z,11.33
2016-08-16T05:35:44.514Z,11.25
2016-08-16T05:36:45.879Z,11.33
2016-08-16T05:37:45.402Z,11.29
2016-08-16T05:38:45.041Z,11.43
2016-08-16T05:39:45.977Z,11.37
2016-08-16T05:40:44.687Z,11.29
2016-08-16T05:41:45.440Z,11.27
2016-08-16T05:42:46.454Z,11.47
2016-08-16T05:43:46.672Z,11.5
2016-08-16T05:44:45.165Z,11.57
2016-08-16T05:45:45.389Z,11.5
2016-08-16T05:46:44.919Z,11.45
2016-08-16T05:47:45.307Z,11.4
2016-08-16T05:48:45.769Z,11.35
2016-08-16T05:49:44.665Z,11.43
2016-08-16T05:50:46.234Z,11.5
2016-08-16T05:51:46.808Z,11.44
2016-08-16T05:52:47.237Z,11.37
2016-08-16T05:53:46.094Z,11.36
2016-08-16T05:54:46.421Z,11.45
2016-08-16T05:55:45.699Z,11.47
2016-08-16T05:56:45.548Z,11.48
2016-08-16T05:57:45.764Z,11.45
2016-08-16T05:58:45.791Z,11.44
2016-08-16T05:59:45.239Z,11.5
2016-08-16T06:00:45.196Z,11.45
2016-08-16T06:01:46.387Z,11.69
2016-08-16T06:02:46.535Z,11.69
2016-08-16T06:03:46.601Z,11.78
2016-08-16T06:04:45.727Z,11.99
2016-08-16T06:05:47.012Z,11.84
2016-08-16T06:06:46.372Z,11.86
2016-08-16T06:07:47.405Z,11.97
2016-08-16T06:08:46.691Z,12.04
2016-08-16T06:09:45.628Z,12.04
2016-08-16T06:10:46.678Z,12.12
2016-08-16T06:11:45.666Z,12.25
2016-08-16T06:12:46.049Z,12.39
2016-08-16T06:13:45.109Z,12.36
2016-08-16T06:14:46.982Z,12.13
2016-08-16T06:15:46.310Z,12.17
2016-08-16T06:16:46.686Z,12.18
2016-08-16T06:17:47.749Z,12.17
2016-08-16T06:18:46.575Z,12.04
2016-08-16T06:19:46.018Z,12.13
2016-08-16T06:20:46.860Z,12.2
2016-08-16T06:21:46.054Z,12.25
2016-08-16T06:22:45.467Z,12.24
2016-08-16T06:23:46.640Z,12.27
2016-08-16T06:24:46.006Z,12.25
2016-08-16T06:25:46.108Z,12.4
2016-08-16T06:26:45.800Z,12.39
2016-08-16T06:27:46.814Z,12.4
2016-08-16T06:28:46.772Z,12.43
2016-08-16T06:29:47.000Z,12.53
2016-08-16T06:30:45.969Z,12.55
2016-08-16T06:31:47.407Z,12.73
2016-08-16T06:32:45.701Z,12.75
2016-08-16T06:33:46.879Z,12.73
2016-08-16T06:34:47.277Z,12.7
2016-08-16T06:35:48.309Z,12.75
2016-08-16T06:36:46.719Z,12.7
2016-08-16T06:37:46.655Z,12.75
2016-08-16T06:38:48.038Z,12.75
2016-08-16T06:39:47.339Z,12.78
2016-08-16T06:40:47.001Z,12.91
2016-08-16T06:41:46.678Z,12.95
2016-08-16T06:42:47.988Z,12.91
2016-08-16T06:43:46.212Z,12.98
2016-08-16T06:44:47.161Z,12.97
2016-08-16T06:45:47.716Z,12.98
2016-08-16T06:46:46.980Z,13.09
2016-08-16T06:47:45.726Z,13.23
2016-08-16T06:48:45.869Z,13.22
2016-08-16T06:49:46.546Z,13.28
2016-08-16T06:50:46.602Z,13.31
2016-08-16T06:51:46.769Z,13.44
2016-08-16T06:52:46.909Z,13.39
2016-08-16T06:53:46.003Z,13.54
2016-08-16T06:54:47.296Z,13.68
2016-08-16T06:55:46.509Z,13.72
2016-08-16T06:56:48.882Z,13.62
2016-08-16T06:57:48.277Z,13.56
2016-08-16T06:58:47.286Z,13.71
2016-08-16T06:59:46.174Z,13.74
2016-08-16T07:00:47.379Z,13.96
2016-08-16T07:01:48.028Z,14.11
2016-08-16T07:02:48.420Z,13.99
2016-08-16T07:03:47.951Z,14
2016-08-16T07:04:46.420Z,14.15
2016-08-16T07:05:46.775Z,14.04
2016-08-16T07:06:47.887Z,14.17
2016-08-16T07:07:46.876Z,14.51
2016-08-16T07:08:47.214Z,14.36
2016-08-16T07:09:47.063Z,14.32
2016-08-16T07:10:47.652Z,14.4
2016-08-16T07:11:47.705Z,14.23
2016-08-16T07:12:46.568Z,14.3
2016-08-16T07:13:47.874Z,14.54
2016-08-16T07:14:48.112Z,14.63
2016-08-16T07:15:48.733Z,14.53
2016-08-16T07:16:47.903Z,14.51
2016-08-16T07:17:48.267Z,14.7
2016-08-16T07:18:47.680Z,14.72
2016-08-16T07:19:46.903Z,14.69
2016-08-16T07:20:47.874Z,14.77
2016-08-16T07:21:48.112Z,14.81
2016-08-16T07:22:47.753Z,14.84
2016-08-16T07:23:46.804Z,14.86
2016-08-16T07:24:48.612Z,14.72
2016-08-16T07:25:47.910Z,14.89
2016-08-16T07:26:48.365Z,14.85
2016-08-16T07:27:47.836Z,15.07
2016-08-16T07:28:48.075Z,15.1
2016-08-16T07:29:47.845Z,15.09
2016-08-16T07:30:49.040Z,15.14
2016-08-16T07:31:48.500Z,15.1
2016-08-16T07:32:48.787Z,15.29
2016-08-16T07:33:48.088Z,15.43
2016-08-16T07:34:48.230Z,15.9
2016-08-16T07:35:47.502Z,16.02
2016-08-16T07:36:47.231Z,16.12
2016-08-16T07:37:48.023Z,15.82
2016-08-16T07:38:47.620Z,16.05
2016-08-16T07:39:49.309Z,16.15
2016-08-16T07:40:47.928Z,16.42
2016-08-16T07:41:48.887Z,16.86
2016-08-16T07:42:47.844Z,16.42
2016-08-16T07:43:48.162Z,16.42
2016-08-16T07:44:48.132Z,16.78
2016-08-16T07:45:48.612Z,17.2
2016-08-16T07:46:49.417Z,17.11
2016-08-16T07:47:47.884Z,16.99
2016-08-16T07:48:48.374Z,17.52
2016-08-16T07:49:48.261Z,17.52
2016-08-16T07:50:48.833Z,17.3
2016-08-16T07:51:47.560Z,17.3
2016-08-16T07:52:47.801Z,17.76
2016-08-16T07:53:48.558Z,18.33
2016-08-16T07:54:48.066Z,17.63
2016-08-16T07:55:47.571Z,17.36
2016-08-16T07:56:47.752Z,17.56
2016-08-16T07:57:47.976Z,17.72
2016-08-16T07:58:48.703Z,17.36
2016-08-16T07:59:49.259Z,17.48
2016-08-16T08:00:48.997Z,18
2016-08-16T08:01:49.194Z,18.47
2016-08-16T08:02:48.530Z,18.04
2016-08-16T08:03:48.988Z,17.95
2016-08-16T08:04:49.012Z,17.83
2016-08-16T08:05:48.416Z,18.01
2016-08-16T08:06:49.426Z,17.89
2016-08-16T08:07:50.003Z,17.74
2016-08-16T08:08:48.907Z,17.74
2016-08-16T08:09:48.177Z,17.71
2016-08-16T08:10:48.366Z,17.85
2016-08-16T08:11:49.556Z,18.75
2016-08-16T08:12:49.980Z,18.62
2016-08-16T08:13:48.176Z,18.59
2016-08-16T08:14:48.996Z,18.1
2016-08-16T08:15:49.400Z,18.22
2016-08-16T08:16:49.293Z,18.2
2016-08-16T08:17:49.920Z,18.19
2016-08-16T08:18:49.406Z,18.4
2016-08-16T08:19:49.005Z,18.92
2016-08-16T08:20:49.543Z,18.71
2016-08-16T08:21:50.364Z,18.59
2016-08-16T08:22:49.781Z,18.33
2016-08-16T08:23:49.612Z,18.59
2016-08-16T08:24:49.194Z,18.56
2016-08-16T08:25:49.264Z,18.49
2016-08-16T08:26:49.577Z,18.52
2016-08-16T08:27:50.818Z,19.21
2016-08-16T08:28:49.975Z,19.27
2016-08-16T08:29:50.063Z,19.76
2016-08-16T08:30:50.509Z,20.14
2016-08-16T08:31:49.530Z,20.87
2016-08-16T08:32:49.461Z,21.07
2016-08-16T08:33:49.982Z,22
2016-08-16T08:34:50.097Z,22.44
2016-08-16T08:35:49.330Z,22.84
2016-08-16T08:36:49.923Z,22.17
2016-08-16T08:37:49.388Z,22.23
2016-08-16T08:38:49.687Z,22.41
2016-08-16T08:39:49.383Z,21.61
2016-08-16T08:40:50.408Z,21.2
2016-08-16T08:41:50.072Z,21.3
2016-08-16T08:42:50.873Z,21.11
2016-08-16T08:43:50.194Z,21.35
2016-08-16T08:44:50.500Z,21.83
2016-08-16T08:45:49.410Z,22.3
2016-08-16T08:46:49.466Z,22.73
2016-08-16T08:47:52.193Z,23.91
2016-08-16T08:48:49.902Z,23
2016-08-16T08:49:50.815Z,21.83
2016-08-16T08:50:50.351Z,22.02
2016-08-16T08:51:51.555Z,22.45
2016-08-16T08:52:51.036Z,21.95
2016-08-16T08:53:50.927Z,23.32
2016-08-16T08:54:49.349Z,23.95
2016-08-16T08:55:49.837Z,24.2
2016-08-16T08:56:50.296Z,24.93
2016-08-16T08:57:50.445Z,25.13
2016-08-16T08:58:49.866Z,22.75
2016-08-16T08:59:50.236Z,22.41
2016-08-16T09:00:49.597Z,22.69
2016-08-16T09:01:49.959Z,22.83
2016-08-16T09:02:51.216Z,22.75
2016-08-16T09:03:49.905Z,23.32
2016-08-16T09:04:50.052Z,23.03
2016-08-16T09:05:50.012Z,23.12
2016-08-16T09:06:51.038Z,23.41
2016-08-16T09:07:51.813Z,22.23
2016-08-16T09:08:50.629Z,22.25
2016-08-16T09:09:52.153Z,22.41
2016-08-16T09:10:51.155Z,23.17
2016-08-16T09:11:50.580Z,24.18
2016-08-16T09:12:50.769Z,21.83
2016-08-16T09:13:50.428Z,21.33
2016-08-16T09:14:50.623Z,22.06
2016-08-16T09:15:52.456Z,22.28
2016-08-16T09:16:51.619Z,23.51
2016-08-16T09:17:50.911Z,22.51
2016-08-16T09:18:51.307Z,22.29
2016-08-16T09:19:50.319Z,22.75
2016-08-16T09:20:50.243Z,23
2016-08-16T09:21:50.535Z,22.51
2016-08-16T09:22:52.776Z,22.44
2016-08-16T09:23:52.349Z,22.68
2016-08-16T09:24:50.498Z,23.36
2016-08-16T09:25:51.419Z,23.17
2016-08-16T09:26:51.982Z,22.69
2016-08-16T09:27:51.522Z,22.2
2016-08-16T09:28:51.434Z,21.6
2016-08-16T09:29:51.557Z,21.67
2016-08-16T09:30:50.926Z,21.69
2016-08-16T09:31:52.293Z,22.11
2016-08-16T09:32:51.308Z,23.09
2016-08-16T09:33:51.205Z,23.47
2016-08-16T09:34:52.176Z,24.21
2016-08-16T09:35:52.648Z,25.26
2016-08-16T09:36:50.690Z,25.31
2016-08-16T09:37:50.808Z,24.5
2016-08-16T09:38:51.292Z,25.58
2016-08-16T09:39:51.607Z,26.56
2016-08-16T09:40:52.729Z,27.12
2016-08-16T09:41:51.322Z,25.32
2016-08-16T09:42:52.003Z,25.77
2016-08-16T09:43:50.738Z,25.63
2016-08-16T09:44:52.512Z,26.25
2016-08-16T09:45:53.285Z,26.45
2016-08-16T09:46:51.315Z,26.99
2016-08-16T09:47:52.669Z,24.98
2016-08-16T09:48:52.814Z,25.21
2016-08-16T09:49:52.784Z,25.21
2016-08-16T09:50:52.004Z,24.38
2016-08-16T09:51:51.571Z,24.02
2016-08-16T09:52:54.176Z,23.09
2016-08-16T09:53:52.411Z,22.7
2016-08-16T09:54:51.585Z,22.29
2016-08-16T09:55:51.897Z,22.73
2016-08-16T09:56:54.047Z,23.28
2016-08-16T09:57:52.173Z,22.39
2016-08-16T09:58:52.256Z,21.83
2016-08-16T09:59:54.459Z,22.17
2016-08-16T10:00:52.700Z,22.9
2016-08-16T10:01:52.156Z,21.96
2016-08-16T10:02:51.465Z,21.11
2016-08-16T10:03:53.270Z,21.32
2016-08-16T10:04:52.423Z,21.35
2016-08-16T10:05:52.035Z,21.33
2016-08-16T10:06:52.439Z,20.85
2016-08-16T10:07:52.842Z,20.9
2016-08-16T10:08:52.809Z,20.95
2016-08-16T10:09:52.242Z,20.92
2016-08-16T10:10:52.974Z,21.22
2016-08-16T10:11:52.995Z,21.22
2016-08-16T10:12:52.784Z,20.88
2016-08-16T10:13:52.933Z,21.35
2016-08-16T10:14:52.434Z,20.67
2016-08-16T10:15:52.376Z,21
2016-08-16T10:16:53.047Z,21.33
2016-08-16T10:17:51.899Z,21.21
2016-08-16T10:18:51.928Z,21.18
2016-08-16T10:19:52.363Z,20.78
2016-08-16T10:20:52.213Z,20.48
2016-08-16T10:21:52.257Z,20.78
2016-08-16T10:22:52.767Z,21.3
2016-08-16T10:23:52.845Z,21.67
2016-08-16T10:24:52.857Z,21.89
2016-08-16T10:25:53.615Z,21.85
2016-08-16T10:26:52.852Z,22.18
2016-08-16T10:27:53.202Z,22.33
2016-08-16T10:28:53.033Z,21.75
2016-08-16T10:29:53.386Z,21.76
2016-08-16T10:30:52.770Z,22.32
2016-08-16T10:31:52.675Z,22.1
2016-08-16T10:32:52.641Z,21.45
2016-08-16T10:33:53.955Z,22.04
2016-08-16T10:34:54.048Z,22.02
2016-08-16T10:35:53.031Z,22.26
2016-08-16T10:36:53.804Z,22.44
2016-08-16T10:37:52.496Z,23
2016-08-16T10:38:53.325Z,22.04
2016-08-16T10:39:52.906Z,21.88
2016-08-16T10:40:53.578Z,21.93
2016-08-16T10:41:54.074Z,22.33
2016-08-16T10:42:52.926Z,22.63
2016-08-16T10:43:55.404Z,22.8
2016-08-16T10:44:54.285Z,22.6
2016-08-16T10:45:53.005Z,22.47
2016-08-16T10:46:54.557Z,22.7
2016-08-16T10:47:53.238Z,22.98
2016-08-16T10:48:53.811Z,24.36
2016-08-16T10:49:53.660Z,24.2
2016-08-16T10:50:54.717Z,23.59
2016-08-16T10:51:54.383Z,24.45
2016-08-16T10:52:54.867Z,25.62
2016-08-16T10:53:54.303Z,23.92
2016-08-16T10:54:54.976Z,22.73
2016-08-16T10:55:54.296Z,22.85
2016-08-16T10:56:55.370Z,23.58
2016-08-16T10:57:55.332Z,23.54
2016-08-16T10:58:54.255Z,23.77
2016-08-16T10:59:54.104Z,23.05
2016-08-16T11:00:55.029Z,23.46
2016-08-16T11:01:53.988Z,23.18
2016-08-16T11:02:53.881Z,22.43
2016-08-16T11:03:54.128Z,23.34
2016-08-16T11:04:53.860Z,23.66
2016-08-16T11:05:54.036Z,24.32
2016-08-16T11:06:54.003Z,25.14
2016-08-16T11:07:54.244Z,23.69
2016-08-16T11:08:54.811Z,23.55
2016-08-16T11:09:55.846Z,23.44
2016-08-16T11:10:54.595Z,23.71
2016-08-16T11:11:54.747Z,23.27
2016-08-16T11:12:53.567Z,22.84
2016-08-16T11:13:53.668Z,22.5
2016-08-16T11:14:53.838Z,22.43
2016-08-16T11:15:54.334Z,23.03
2016-08-16T11:16:54.614Z,23.03
2016-08-16T11:17:54.455Z,22.72
2016-08-16T11:18:54.732Z,22.7
2016-08-16T11:19:54.813Z,22.65
2016-08-16T11:20:54.428Z,22.76
2016-08-16T11:21:54.771Z,22.85
2016-08-16T11:22:54.416Z,23.58
2016-08-16T11:23:54.735Z,23.93
2016-08-16T11:24:55.165Z,24.01
2016-08-16T11:25:54.377Z,23.95
2016-08-16T11:26:56.033Z,23.58
2016-08-16T11:27:55.205Z,22.66
2016-08-16T11:28:54.978Z,22.28
2016-08-16T11:29:54.379Z,22.63
2016-08-16T11:30:54.960Z,22.5
2016-08-16T11:31:54.339Z,22.9
2016-08-16T11:32:55.087Z,22.7
2016-08-16T11:33:55.491Z,22.83
2016-08-16T11:34:56.441Z,22.75
2016-08-16T11:35:55.667Z,22.66
2016-08-16T11:36:55.112Z,23.06
2016-08-16T11:37:56.084Z,23.34
2016-08-16T11:38:56.645Z,23.69
2016-08-16T11:39:55.049Z,23.86
2016-08-16T11:40:56.222Z,24.47
2016-08-16T11:41:56.256Z,24.17
2016-08-16T11:42:55.736Z,24.17
2016-08-16T11:43:55.677Z,24.48
2016-08-16T11:44:56.457Z,24.29
2016-08-16T11:45:55.720Z,25.4
2016-08-16T11:46:56.665Z,25.54
2016-08-16T11:47:56.656Z,26.23
2016-08-16T11:48:55.699Z,24.96
2016-08-16T11:49:55.008Z,26
2016-08-16T11:50:56.620Z,26.28
2016-08-16T11:51:56.982Z,28.02
2016-08-16T11:52:57.317Z,26.78
2016-08-16T11:53:55.388Z,26.23
2016-08-16T11:54:55.617Z,25.11
2016-08-16T11:55:55.500Z,25.14
2016-08-16T11:56:57.155Z,24.76
2016-08-16T11:57:57.082Z,24.43
2016-08-16T11:58:56.215Z,24.43
2016-08-16T11:59:56.261Z,24.95
2016-08-16T12:00:55.515Z,25.06
2016-08-16T12:01:56.732Z,25.04
2016-08-16T12:02:56.914Z,25.04
2016-08-16T12:03:57.200Z,25.1
2016-08-16T12:04:56.400Z,26.06
2016-08-16T12:05:56.400Z,24.98
2016-08-16T12:06:56.603Z,25.55
2016-08-16T12:07:57.731Z,24.45
2016-08-16T12:08:55.759Z,24.3
2016-08-16T12:09:57.281Z,25.01
2016-08-16T12:10:56.793Z,24.28
2016-08-16T12:11:56.666Z,23.28
2016-08-16T12:12:56.841Z,23.62
2016-08-16T12:13:57.432Z,23.96
2016-08-16T12:14:57.624Z,24.13
2016-08-16T12:15:57.279Z,25.04
2016-08-16T12:16:56.869Z,25.01
2016-08-16T12:17:57.616Z,25.17
2016-08-16T12:18:58.233Z,24.61
2016-08-16T12:19:57.166Z,24.32
2016-08-16T12:20:57.419Z,24.68
2016-08-16T12:21:56.747Z,24.45
2016-08-16T12:22:57.412Z,24.16
2016-08-16T12:23:57.016Z,24.39
2016-08-16T12:24:57.317Z,24.16
2016-08-16T12:25:57.385Z,24.17
2016-08-16T12:26:57.357Z,25.87
2016-08-16T12:27:57.151Z,25.29
2016-08-16T12:28:57.767Z,25.6
2016-08-16T12:29:57.989Z,25.08
2016-08-16T12:30:57.468Z,25.58
2016-08-16T12:31:58.053Z,25.17
2016-08-16T12:32:57.584Z,24.6
2016-08-16T12:33:57.934Z,24.93
2016-08-16T12:34:59.630Z,25.29
2016-08-16T12:35:57.520Z,25.98
2016-08-16T12:36:58.766Z,26.47
2016-08-16T12:37:57.502Z,27.33
2016-08-16T12:38:57.038Z,27.78
2016-08-16T12:39:57.675Z,27.73
2016-08-16T12:40:58.700Z,27.78
2016-08-16T12:41:58.225Z,26.95
2016-08-16T12:42:58.444Z,26.96
2016-08-16T12:43:58.639Z,27.6
2016-08-16T12:44:56.858Z,29.31
2016-08-16T12:45:58.598Z,29.44
2016-08-16T12:46:58.154Z,29.95
2016-08-16T12:47:58.241Z,29.88
2016-08-16T12:48:58.837Z,29.16
2016-08-16T12:49:58.546Z,27.96
2016-08-16T12:50:58.532Z,27.75
2016-08-16T12:51:57.539Z,27.8
2016-08-16T12:52:58.499Z,27.73
2016-08-16T12:53:57.524Z,27.07
2016-08-16T12:54:58.108Z,27.22
2016-08-16T12:55:58.546Z,26.71
2016-08-16T12:56:58.105Z,25.62